createdAt,value
2019-01-15T00:04:21.120Z,1.63
2019-01-15T00:10:06.743Z,2.63
2019-01-15T00:13:07.839Z,1.93
2019-01-15T00:18:53.731Z,2.07
2019-01-15T00:24:39.781Z,2.00
2019-01-15T00:33:32.840Z,1.70
2019-01-15T00:39:18.556Z,2.30
2019-01-15T00:42:20.065Z,1.83
2019-01-15T00:45:21.071Z,2.20
2019-01-15T00:48:21.528Z,1.80
2019-01-15T00:54:07.399Z,1.70
2019-01-15T00:59:47.871Z,1.50
2019-01-15T01:05:34.091Z,1.53
2019-01-15T01:11:20.527Z,1.60
2019-01-15T01:14:40.221Z,2.03
2019-01-15T01:21:20.276Z,1.20
2019-01-15T01:24:24.514Z,1.50
2019-01-15T01:30:10.663Z,1.50
2019-01-15T01:33:28.973Z,1.37
2019-01-15T01:39:36.155Z,2.20
2019-01-15T01:45:20.936Z,1.80
2019-01-15T01:51:25.537Z,1.70
2019-01-15T01:54:26.343Z,1.40
2019-01-15T02:00:12.278Z,1.63
2019-01-15T02:05:58.336Z,2.17
2019-01-15T02:11:44.478Z,2.10
2019-01-15T02:14:46.008Z,2.03
2019-01-15T02:20:32.322Z,2.30
2019-01-15T02:26:18.481Z,1.63
2019-01-15T02:32:04.636Z,2.03
2019-01-15T02:35:06.090Z,2.57
2019-01-15T02:40:51.183Z,2.13
2019-01-15T02:46:37.158Z,2.33
2019-01-15T02:52:22.536Z,1.50
2019-01-15T02:55:24.195Z,4.60
2019-01-15T03:01:09.361Z,1.63
2019-01-15T03:06:55.300Z,2.60
2019-01-15T03:09:57.904Z,2.67
2019-01-15T03:12:58.796Z,1.90
2019-01-15T03:15:58.219Z,2.47
2019-01-15T03:21:44.158Z,1.60
2019-01-15T03:27:30.816Z,2.30
2019-01-15T03:33:17.224Z,1.60
2019-01-15T03:36:18.697Z,1.30
2019-01-15T03:42:04.514Z,2.00
2019-01-15T03:47:50.014Z,1.20
2019-01-15T03:53:35.463Z,1.10
2019-01-15T03:56:42.124Z,1.10
2019-01-15T04:05:34.067Z,1.57
2019-01-15T04:08:34.763Z,0.90
2019-01-15T04:14:20.507Z,1.60
2019-01-15T04:20:46.418Z,1.53
2019-01-15T04:23:47.542Z,1.60
2019-01-15T04:29:33.258Z,1.30
2019-01-15T04:32:34.843Z,1.57
2019-01-15T04:38:21.341Z,1.20
2019-01-15T04:44:07.787Z,1.30
2019-01-15T04:49:54.143Z,1.63
2019-01-15T04:52:55.547Z,1.17
2019-01-15T04:58:41.646Z,1.40
2019-01-15T05:04:27.566Z,1.57
2019-01-15T05:10:13.111Z,1.20
2019-01-15T05:13:14.350Z,1.63
2019-01-15T05:19:00.099Z,1.70
2019-01-15T05:24:46.438Z,1.20
2019-01-15T05:30:32.844Z,2.00
2019-01-15T05:33:36.403Z,1.67
2019-01-15T05:39:22.138Z,1.70
2019-01-15T05:45:08.618Z,2.10
2019-01-15T05:50:54.380Z,1.80
2019-01-15T05:53:55.721Z,2.00
2019-01-15T05:59:42.325Z,2.57
2019-01-15T06:05:28.141Z,2.70
2019-01-15T06:11:14.755Z,2.40
2019-01-15T06:14:16.376Z,3.10
2019-01-15T06:20:02.422Z,1.83
2019-01-15T06:25:48.006Z,2.97
2019-01-15T06:31:35.125Z,2.47
2019-01-15T06:34:36.567Z,2.83
2019-01-15T06:40:22.603Z,2.30
2019-01-15T06:46:07.987Z,3.10
2019-01-15T06:51:53.635Z,2.87
2019-01-15T06:54:54.851Z,3.20
2019-01-15T07:00:40.890Z,4.03
2019-01-15T07:06:26.743Z,4.27
2019-01-15T07:12:13.202Z,4.47
2019-01-15T07:15:14.880Z,4.77
2019-01-15T07:21:01.429Z,5.83
2019-01-15T07:26:47.513Z,6.80
2019-01-15T07:32:33.312Z,7.03
2019-01-15T07:35:34.046Z,6.00
2019-01-15T07:41:18.934Z,6.57
2019-01-15T07:50:11.510Z,7.40
2019-01-15T07:53:12.131Z,7.90
2019-01-15T07:56:12.831Z,7.70
2019-01-15T08:01:57.678Z,7.63
2019-01-15T08:07:43.338Z,8.10
2019-01-15T08:13:29.923Z,8.60
2019-01-15T08:19:15.675Z,9.03
2019-01-15T08:22:16.910Z,9.00
2019-01-15T08:28:02.515Z,9.17
2019-01-15T08:33:48.879Z,8.97
2019-01-15T08:39:35.274Z,9.07
2019-01-15T08:48:27.063Z,9.67
2019-01-15T08:54:13.069Z,10.67
2019-01-15T08:59:57.969Z,11.40
2019-01-15T09:05:43.884Z,9.60
2019-01-15T09:11:28.745Z,10.13
2019-01-15T09:14:30.291Z,11.43
2019-01-15T09:17:31.450Z,10.63
2019-01-15T09:20:32.259Z,11.33
2019-01-15T09:26:18.059Z,10.27
2019-01-15T09:32:03.789Z,11.83
2019-01-15T09:37:50.564Z,11.77
2019-01-15T09:40:51.829Z,12.07
2019-01-15T09:46:38.490Z,12.43
2019-01-15T09:52:24.210Z,12.23
2019-01-15T09:58:09.958Z,12.57
2019-01-15T10:03:57.174Z,12.43
2019-01-15T10:09:43.554Z,12.17
2019-01-15T10:12:44.184Z,12.60
2019-01-15T10:18:30.466Z,12.10
2019-01-15T10:24:16.098Z,11.23
2019-01-15T10:30:01.812Z,11.57
2019-01-15T10:35:48.008Z,12.73
2019-01-15T10:38:49.615Z,11.97
2019-01-15T10:44:35.574Z,12.13
2019-01-15T10:50:21.330Z,12.27
2019-01-15T10:56:06.806Z,11.27
2019-01-15T11:01:51.739Z,12.90
2019-01-15T11:04:53.261Z,10.13
2019-01-15T11:10:39.695Z,12.00
2019-01-15T11:16:25.479Z,12.57
2019-01-15T11:22:10.957Z,12.40
2019-01-15T11:25:12.093Z,12.20
2019-01-15T11:30:57.671Z,11.87
2019-01-15T11:36:43.969Z,11.60
2019-01-15T11:42:27.347Z,10.87
2019-01-15T11:45:28.075Z,11.37
2019-01-15T11:52:02.266Z,10.70
2019-01-15T11:57:47.003Z,11.27
2019-01-15T12:04:12.710Z,9.50
2019-01-15T12:07:14.175Z,9.27
2019-01-15T12:12:59.149Z,10.23
2019-01-15T12:16:00.685Z,10.70
2019-01-15T12:21:46.531Z,9.43
2019-01-15T12:27:32.963Z,9.73
2019-01-15T12:30:58.127Z,9.80
2019-01-15T12:33:59.292Z,9.67
2019-01-15T12:36:59.933Z,7.13
2019-01-15T12:42:43.483Z,8.37
2019-01-15T12:48:28.219Z,8.83
2019-01-15T12:54:13.916Z,7.90
2019-01-15T13:03:25.024Z,6.47
2019-01-15T13:09:09.698Z,6.83
2019-01-15T13:14:54.918Z,6.80
2019-01-15T13:20:39.827Z,6.27
2019-01-15T13:26:21.091Z,6.80
2019-01-15T13:29:22.719Z,6.70
2019-01-15T13:35:09.390Z,6.40
2019-01-15T13:38:29.642Z,6.30
2019-01-15T13:41:31.333Z,5.03
2019-01-15T13:44:32.864Z,5.60
2019-01-15T13:51:11.089Z,5.83
2019-01-15T13:56:57.430Z,5.80
2019-01-15T14:02:43.013Z,5.70
2019-01-15T14:06:06.620Z,6.60
2019-01-15T14:11:52.581Z,5.67
2019-01-15T14:17:38.757Z,5.10
2019-01-15T14:20:39.156Z,5.20
2019-01-15T14:23:44.822Z,5.40
2019-01-15T14:26:46.479Z,4.80
2019-01-15T14:32:33.124Z,5.07
2019-01-15T14:39:13.992Z,5.13
2019-01-15T14:42:19.602Z,4.50
2019-01-15T14:48:06.407Z,4.93
2019-01-15T14:53:52.237Z,5.47
2019-01-15T14:59:37.823Z,5.17
2019-01-15T15:05:44.513Z,5.20
2019-01-15T15:08:51.103Z,4.60
2019-01-15T15:14:40.175Z,5.30
2019-01-15T15:20:25.179Z,5.00
2019-01-15T15:26:30.010Z,4.70
2019-01-15T15:29:51.482Z,5.10
2019-01-15T15:35:37.249Z,4.60
2019-01-15T15:41:22.187Z,5.13
2019-01-15T15:47:27.824Z,4.60
2019-01-15T15:50:28.216Z,4.27
2019-01-15T15:53:29.789Z,5.30
2019-01-15T15:56:44.281Z,5.27
2019-01-15T16:02:29.266Z,4.73
2019-01-15T16:08:14.062Z,6.00
2019-01-15T16:13:59.285Z,5.33
2019-01-15T16:19:45.726Z,5.23
2019-01-15T16:25:33.066Z,5.50
2019-01-15T16:31:17.842Z,6.13
2019-01-15T16:34:18.996Z,6.17
2019-01-15T16:40:03.933Z,5.87
2019-01-15T16:46:44.576Z,8.47
2019-01-15T16:52:29.827Z,7.83
2019-01-15T16:58:17.166Z,6.67
2019-01-15T17:01:17.443Z,6.40
2019-01-15T17:04:18.622Z,6.53
2019-01-15T17:10:04.842Z,6.20
2019-01-15T17:13:21.395Z,5.90
2019-01-15T17:19:02.020Z,7.37
2019-01-15T17:28:12.203Z,7.03
2019-01-15T17:31:13.795Z,7.47
2019-01-15T17:36:58.793Z,7.43
2019-01-15T17:43:06.371Z,7.50
2019-01-15T17:46:07.676Z,6.53
2019-01-15T17:51:53.230Z,7.17
2019-01-15T17:57:39.370Z,7.40
2019-01-15T18:00:40.132Z,9.10
2019-01-15T18:06:26.319Z,7.40
2019-01-15T18:12:11.575Z,8.13
2019-01-15T18:17:56.753Z,9.83
2019-01-15T18:21:17.135Z,8.00
2019-01-15T18:24:22.973Z,7.30
2019-01-15T18:30:09.264Z,7.97
2019-01-15T18:33:13.726Z,8.67
2019-01-15T18:38:59.442Z,8.10
2019-01-15T18:44:45.207Z,8.37
2019-01-15T18:50:31.541Z,9.13
2019-01-15T18:56:17.158Z,8.70
2019-01-15T19:02:08.139Z,9.80
2019-01-15T19:07:53.662Z,9.77
2019-01-15T19:14:05.524Z,10.37
2019-01-15T19:17:06.970Z,10.27
2019-01-15T19:26:02.907Z,9.97
2019-01-15T19:29:04.140Z,10.37
2019-01-15T19:34:50.549Z,11.87
2019-01-15T19:40:37.002Z,10.30
2019-01-15T19:43:38.400Z,10.47
2019-01-15T19:49:24.059Z,11.70
2019-01-15T19:55:10.057Z,9.73
2019-01-15T20:00:56.245Z,10.83
2019-01-15T20:06:42.030Z,11.33
2019-01-15T20:12:28.410Z,9.67
2019-01-15T20:15:49.902Z,8.10
2019-01-15T20:21:36.498Z,10.97
2019-01-15T20:27:21.898Z,9.23
2019-01-15T20:33:10.503Z,8.77
2019-01-15T20:36:36.602Z,9.37
2019-01-15T20:39:38.173Z,7.83
2019-01-15T20:42:39.065Z,8.03
2019-01-15T20:45:59.006Z,8.70
2019-01-15T20:48:59.767Z,7.30
2019-01-15T20:54:47.516Z,8.27
2019-01-15T21:00:53.510Z,9.13
2019-01-15T21:04:00.011Z,8.10
2019-01-15T21:09:47.739Z,8.40
2019-01-15T21:15:34.101Z,8.43
2019-01-15T21:21:20.663Z,9.07
2019-01-15T21:30:32.446Z,8.37
2019-01-15T21:36:18.080Z,10.13
2019-01-15T21:42:04.638Z,8.93
2019-01-15T21:47:51.051Z,8.87
2019-01-15T21:56:48.123Z,9.80
2019-01-15T21:59:49.803Z,10.77
2019-01-15T22:02:50.569Z,11.17
2019-01-15T22:08:35.459Z,10.97
2019-01-15T22:14:22.015Z,11.40
2019-01-15T22:20:08.436Z,10.63
2019-01-15T22:25:53.710Z,11.20
2019-01-15T22:31:39.642Z,11.70
2019-01-15T22:37:25.470Z,10.70
2019-01-15T22:43:11.910Z,11.20
2019-01-15T22:48:57.638Z,11.13
2019-01-15T22:51:58.710Z,11.60
2019-01-15T22:57:44.105Z,11.53
2019-01-15T23:03:30.526Z,9.97
2019-01-15T23:09:16.195Z,11.33
2019-01-15T23:15:00.704Z,12.67
2019-01-15T23:20:48.703Z,13.37
2019-01-15T23:29:41.113Z,12.83
2019-01-15T23:32:42.648Z,13.90
2019-01-15T23:36:02.234Z,12.93
2019-01-15T23:41:48.106Z,12.57
2019-01-15T23:47:33.821Z,12.40
2019-01-15T23:53:38.062Z,11.97
2019-01-15T23:59:24.131Z,12.57
